sensor_id;sensor_type;location;lat;lon;timestamp;P1;durP1;ratioP1;P2;durP2;ratioP2
68976;SDS011;56029;52.568;13.588;2023-02-26T00:01:38;2.38;;;0.90;;
68976;SDS011;56029;52.568;13.588;2023-02-26T00:04:04;5.13;;;1.13;;
68976;SDS011;56029;52.568;13.588;2023-02-26T00:06:31;5.35;;;1.40;;
68976;SDS011;56029;52.568;13.588;2023-02-26T00:08:59;5.65;;;1.02;;
68976;SDS011;56029;52.568;13.588;2023-02-26T00:11:24;3.70;;;1.20;;
68976;SDS011;56029;52.568;13.588;2023-02-26T00:13:50;1.40;;;0.90;;
68976;SDS011;56029;52.568;13.588;2023-02-26T00:16:22;4.70;;;1.42;;
68976;SDS011;56029;52.568;13.588;2023-02-26T00:18:52;1.35;;;0.80;;
68976;SDS011;56029;52.568;13.588;2023-02-26T00:21:19;2.63;;;1.30;;
68976;SDS011;56029;52.568;13.588;2023-02-26T00:23:47;2.60;;;1.00;;
68976;SDS011;56029;52.568;13.588;2023-02-26T00:26:13;1.23;;;0.82;;
68976;SDS011;56029;52.568;13.588;2023-02-26T00:28:39;3.00;;;1.17;;
68976;SDS011;56029;52.568;13.588;2023-02-26T00:31:05;1.58;;;0.90;;
68976;SDS011;56029;52.568;13.588;2023-02-26T00:33:31;1.95;;;1.15;;
68976;SDS011;56029;52.568;13.588;2023-02-26T00:36:02;3.87;;;1.53;;
68976;SDS011;56029;52.568;13.588;2023-02-26T00:38:38;2.58;;;1.27;;
68976;SDS011;56029;52.568;13.588;2023-02-26T00:41:07;1.80;;;1.10;;
68976;SDS011;56029;52.568;13.588;2023-02-26T00:43:33;3.47;;;1.17;;
68976;SDS011;56029;52.568;13.588;2023-02-26T00:48:54;3.05;;;1.15;;
68976;SDS011;56029;52.568;13.588;2023-02-26T00:51:39;2.45;;;1.30;;
68976;SDS011;56029;52.568;13.588;2023-02-26T00:54:19;3.72;;;1.00;;
68976;SDS011;56029;52.568;13.588;2023-02-26T00:56:49;3.28;;;1.00;;
68976;SDS011;56029;52.568;13.588;2023-02-26T00:59:17;3.10;;;1.10;;
68976;SDS011;56029;52.568;13.588;2023-02-26T01:01:43;2.88;;;1.20;;
68976;SDS011;56029;52.568;13.588;2023-02-26T01:04:10;4.88;;;0.95;;
68976;SDS011;56029;52.568;13.588;2023-02-26T01:06:39;4.03;;;1.27;;
68976;SDS011;56029;52.568;13.588;2023-02-26T01:09:15;2.22;;;1.00;;
68976;SDS011;56029;52.568;13.588;2023-02-26T01:11:46;1.40;;;0.93;;
68976;SDS011;56029;52.568;13.588;2023-02-26T01:14:12;3.75;;;1.00;;
68976;SDS011;56029;52.568;13.588;2023-02-26T01:16:43;1.30;;;0.65;;
68976;SDS011;56029;52.568;13.588;2023-02-26T01:22:20;5.07;;;1.27;;
68976;SDS011;56029;52.568;13.588;2023-02-26T01:24:51;4.75;;;1.10;;
68976;SDS011;56029;52.568;13.588;2023-02-26T01:27:23;2.97;;;1.10;;
68976;SDS011;56029;52.568;13.588;2023-02-26T01:29:49;4.50;;;1.20;;
68976;SDS011;56029;52.568;13.588;2023-02-26T01:32:17;4.50;;;1.20;;
68976;SDS011;56029;52.568;13.588;2023-02-26T01:38:03;2.92;;;1.10;;
68976;SDS011;56029;52.568;13.588;2023-02-26T01:43:49;2.92;;;1.13;;
68976;SDS011;56029;52.568;13.588;2023-02-26T01:49:36;1.80;;;0.90;;
68976;SDS011;56029;52.568;13.588;2023-02-26T01:52:04;1.85;;;0.98;;
68976;SDS011;56029;52.568;13.588;2023-02-26T01:54:31;2.70;;;1.10;;
68976;SDS011;56029;52.568;13.588;2023-02-26T01:57:00;2.85;;;0.75;;
68976;SDS011;56029;52.568;13.588;2023-02-26T01:59:30;2.90;;;1.10;;
68976;SDS011;56029;52.568;13.588;2023-02-26T02:02:01;2.40;;;1.00;;
68976;SDS011;56029;52.568;13.588;2023-02-26T02:04:30;2.95;;;1.10;;
68976;SDS011;56029;52.568;13.588;2023-02-26T02:06:57;5.67;;;1.10;;
68976;SDS011;56029;52.568;13.588;2023-02-26T02:09:22;2.08;;;1.00;;
68976;SDS011;56029;52.568;13.588;2023-02-26T02:11:55;1.83;;;0.90;;
68976;SDS011;56029;52.568;13.588;2023-02-26T02:17:31;2.58;;;1.08;;
68976;SDS011;56029;52.568;13.588;2023-02-26T02:23:06;2.08;;;0.85;;
68976;SDS011;56029;52.568;13.588;2023-02-26T02:31:17;3.30;;;1.10;;
68976;SDS011;56029;52.568;13.588;2023-02-26T02:33:59;4.22;;;1.27;;
68976;SDS011;56029;52.568;13.588;2023-02-26T02:39:01;2.30;;;1.00;;
68976;SDS011;56029;52.568;13.588;2023-02-26T02:41:34;1.95;;;0.90;;
68976;SDS011;56029;52.568;13.588;2023-02-26T02:44:09;4.00;;;1.10;;
68976;SDS011;56029;52.568;13.588;2023-02-26T02:46:38;3.20;;;1.10;;
68976;SDS011;56029;52.568;13.588;2023-02-26T02:49:11;3.97;;;0.95;;
68976;SDS011;56029;52.568;13.588;2023-02-26T02:51:50;3.17;;;1.02;;
68976;SDS011;56029;52.568;13.588;2023-02-26T02:54:31;2.67;;;1.10;;
68976;SDS011;56029;52.568;13.588;2023-02-26T02:57:12;1.83;;;1.00;;
68976;SDS011;56029;52.568;13.588;2023-02-26T02:59:44;1.38;;;0.70;;
68976;SDS011;56029;52.568;13.588;2023-02-26T03:05:05;3.00;;;0.98;;
68976;SDS011;56029;52.568;13.588;2023-02-26T03:07:31;1.08;;;0.65;;
68976;SDS011;56029;52.568;13.588;2023-02-26T03:10:04;3.00;;;0.98;;
68976;SDS011;56029;52.568;13.588;2023-02-26T03:12:30;3.33;;;0.82;;
68976;SDS011;56029;52.568;13.588;2023-02-26T03:14:57;2.00;;;0.90;;
68976;SDS011;56029;52.568;13.588;2023-02-26T03:17:35;3.25;;;1.00;;
68976;SDS011;56029;52.568;13.588;2023-02-26T03:20:20;1.53;;;0.90;;
68976;SDS011;56029;52.568;13.588;2023-02-26T03:23:13;6.22;;;1.15;;
68976;SDS011;56029;52.568;13.588;2023-02-26T03:26:28;4.95;;;0.95;;
68976;SDS011;56029;52.568;13.588;2023-02-26T03:28:47;3.92;;;0.90;;
68976;SDS011;56029;52.568;13.588;2023-02-26T03:31:19;1.45;;;1.00;;
68976;SDS011;56029;52.568;13.588;2023-02-26T03:37:08;1.67;;;0.80;;
68976;SDS011;56029;52.568;13.588;2023-02-26T03:39:43;1.33;;;0.65;;
68976;SDS011;56029;52.568;13.588;2023-02-26T03:44:40;2.13;;;0.90;;
68976;SDS011;56029;52.568;13.588;2023-02-26T03:47:11;4.22;;;0.90;;
68976;SDS011;56029;52.568;13.588;2023-02-26T03:49:44;4.82;;;0.77;;
68976;SDS011;56029;52.568;13.588;2023-02-26T03:52:13;2.38;;;1.00;;
68976;SDS011;56029;52.568;13.588;2023-02-26T03:54:48;2.95;;;0.77;;
68976;SDS011;56029;52.568;13.588;2023-02-26T03:57:20;1.20;;;0.60;;
68976;SDS011;56029;52.568;13.588;2023-02-26T03:59:45;2.50;;;1.00;;
68976;SDS011;56029;52.568;13.588;2023-02-26T04:02:12;1.45;;;1.02;;
68976;SDS011;56029;52.568;13.588;2023-02-26T04:04:50;2.70;;;0.90;;
68976;SDS011;56029;52.568;13.588;2023-02-26T04:07:19;1.23;;;0.60;;
68976;SDS011;56029;52.568;13.588;2023-02-26T04:09:46;3.25;;;0.90;;
68976;SDS011;56029;52.568;13.588;2023-02-26T04:12:13;2.70;;;0.93;;
68976;SDS011;56029;52.568;13.588;2023-02-26T04:14:39;5.10;;;0.97;;
68976;SDS011;56029;52.568;13.588;2023-02-26T04:17:04;1.15;;;0.60;;
68976;SDS011;56029;52.568;13.588;2023-02-26T04:19:30;2.58;;;1.00;;
68976;SDS011;56029;52.568;13.588;2023-02-26T04:21:56;2.33;;;0.90;;
68976;SDS011;56029;52.568;13.588;2023-02-26T04:24:22;2.28;;;1.02;;
68976;SDS011;56029;52.568;13.588;2023-02-26T04:26:48;2.00;;;0.70;;
68976;SDS011;56029;52.568;13.588;2023-02-26T04:29:13;0.77;;;0.65;;
68976;SDS011;56029;52.568;13.588;2023-02-26T04:31:40;2.00;;;1.00;;
68976;SDS011;56029;52.568;13.588;2023-02-26T04:34:05;1.88;;;0.95;;
68976;SDS011;56029;52.568;13.588;2023-02-26T04:36:31;1.30;;;0.70;;
68976;SDS011;56029;52.568;13.588;2023-02-26T04:38:57;2.88;;;1.10;;
68976;SDS011;56029;52.568;13.588;2023-02-26T04:41:22;2.57;;;0.80;;
68976;SDS011;56029;52.568;13.588;2023-02-26T04:43:48;1.40;;;0.80;;
68976;SDS011;56029;52.568;13.588;2023-02-26T04:46:14;1.93;;;0.80;;
68976;SDS011;56029;52.568;13.588;2023-02-26T04:48:39;1.90;;;0.68;;
68976;SDS011;56029;52.568;13.588;2023-02-26T04:51:05;2.00;;;0.70;;
68976;SDS011;56029;52.568;13.588;2023-02-26T04:53:30;1.40;;;0.75;;
68976;SDS011;56029;52.568;13.588;2023-02-26T04:55:56;4.13;;;1.00;;
68976;SDS011;56029;52.568;13.588;2023-02-26T04:58:22;3.80;;;1.00;;
68976;SDS011;56029;52.568;13.588;2023-02-26T05:00:48;1.73;;;0.73;;
68976;SDS011;56029;52.568;13.588;2023-02-26T05:03:14;1.20;;;0.70;;
68976;SDS011;56029;52.568;13.588;2023-02-26T05:05:40;2.13;;;0.80;;
68976;SDS011;56029;52.568;13.588;2023-02-26T05:08:06;1.85;;;1.00;;
68976;SDS011;56029;52.568;13.588;2023-02-26T05:10:32;1.87;;;0.80;;
68976;SDS011;56029;52.568;13.588;2023-02-26T05:12:57;2.53;;;1.00;;
68976;SDS011;56029;52.568;13.588;2023-02-26T05:15:23;3.08;;;1.00;;
68976;SDS011;56029;52.568;13.588;2023-02-26T05:17:48;1.00;;;0.80;;
68976;SDS011;56029;52.568;13.588;2023-02-26T05:20:14;1.00;;;0.70;;
68976;SDS011;56029;52.568;13.588;2023-02-26T05:22:42;2.85;;;1.25;;
68976;SDS011;56029;52.568;13.588;2023-02-26T05:25:09;4.20;;;1.00;;
68976;SDS011;56029;52.568;13.588;2023-02-26T05:27:36;2.42;;;0.80;;
68976;SDS011;56029;52.568;13.588;2023-02-26T05:30:04;0.88;;;0.73;;
68976;SDS011;56029;52.568;13.588;2023-02-26T05:32:30;1.73;;;0.85;;
68976;SDS011;56029;52.568;13.588;2023-02-26T05:34:56;3.67;;;0.70;;
68976;SDS011;56029;52.568;13.588;2023-02-26T05:37:21;1.80;;;0.80;;
68976;SDS011;56029;52.568;13.588;2023-02-26T05:39:47;3.00;;;1.10;;
68976;SDS011;56029;52.568;13.588;2023-02-26T05:42:12;1.50;;;0.80;;
68976;SDS011;56029;52.568;13.588;2023-02-26T05:44:38;2.35;;;0.82;;
68976;SDS011;56029;52.568;13.588;2023-02-26T05:47:03;1.43;;;0.73;;
68976;SDS011;56029;52.568;13.588;2023-02-26T05:49:29;1.77;;;0.82;;
68976;SDS011;56029;52.568;13.588;2023-02-26T05:51:55;3.40;;;0.87;;
68976;SDS011;56029;52.568;13.588;2023-02-26T05:54:20;3.43;;;1.03;;
68976;SDS011;56029;52.568;13.588;2023-02-26T05:56:46;3.65;;;0.80;;
68976;SDS011;56029;52.568;13.588;2023-02-26T05:59:11;1.30;;;0.80;;
68976;SDS011;56029;52.568;13.588;2023-02-26T06:01:37;1.57;;;1.00;;
68976;SDS011;56029;52.568;13.588;2023-02-26T06:04:03;2.45;;;0.80;;
68976;SDS011;56029;52.568;13.588;2023-02-26T06:06:29;0.70;;;0.53;;
68976;SDS011;56029;52.568;13.588;2023-02-26T06:08:55;0.90;;;0.65;;
68976;SDS011;56029;52.568;13.588;2023-02-26T06:11:21;2.73;;;0.80;;
68976;SDS011;56029;52.568;13.588;2023-02-26T06:13:53;1.75;;;0.63;;
68976;SDS011;56029;52.568;13.588;2023-02-26T06:16:19;2.33;;;0.80;;
68976;SDS011;56029;52.568;13.588;2023-02-26T06:18:46;1.40;;;0.50;;
68976;SDS011;56029;52.568;13.588;2023-02-26T06:21:17;3.47;;;1.00;;
68976;SDS011;56029;52.568;13.588;2023-02-26T06:23:43;1.60;;;0.60;;
68976;SDS011;56029;52.568;13.588;2023-02-26T06:26:09;1.35;;;0.80;;
68976;SDS011;56029;52.568;13.588;2023-02-26T06:28:35;5.32;;;1.65;;
68976;SDS011;56029;52.568;13.588;2023-02-26T06:31:00;2.20;;;1.05;;
68976;SDS011;56029;52.568;13.588;2023-02-26T06:33:26;1.50;;;0.83;;
68976;SDS011;56029;52.568;13.588;2023-02-26T06:35:51;1.65;;;0.90;;
68976;SDS011;56029;52.568;13.588;2023-02-26T06:38:17;0.90;;;0.80;;
68976;SDS011;56029;52.568;13.588;2023-02-26T06:40:43;1.70;;;0.90;;
68976;SDS011;56029;52.568;13.588;2023-02-26T06:43:10;2.50;;;1.38;;
68976;SDS011;56029;52.568;13.588;2023-02-26T06:45:35;3.13;;;1.40;;
68976;SDS011;56029;52.568;13.588;2023-02-26T06:48:01;2.78;;;1.10;;
68976;SDS011;56029;52.568;13.588;2023-02-26T06:50:27;3.70;;;1.80;;
68976;SDS011;56029;52.568;13.588;2023-02-26T06:52:52;2.58;;;1.52;;
68976;SDS011;56029;52.568;13.588;2023-02-26T06:55:18;8.73;;;2.40;;
68976;SDS011;56029;52.568;13.588;2023-02-26T06:57:46;5.60;;;1.60;;
68976;SDS011;56029;52.568;13.588;2023-02-26T07:00:12;5.28;;;2.17;;
68976;SDS011;56029;52.568;13.588;2023-02-26T07:02:38;1.20;;;0.80;;
68976;SDS011;56029;52.568;13.588;2023-02-26T07:05:04;2.13;;;1.00;;
68976;SDS011;56029;52.568;13.588;2023-02-26T07:07:30;3.67;;;1.20;;
68976;SDS011;56029;52.568;13.588;2023-02-26T07:09:56;3.72;;;0.80;;
68976;SDS011;56029;52.568;13.588;2023-02-26T07:12:21;3.67;;;1.10;;
68976;SDS011;56029;52.568;13.588;2023-02-26T07:14:47;3.40;;;1.43;;
68976;SDS011;56029;52.568;13.588;2023-02-26T07:17:13;3.30;;;1.10;;
68976;SDS011;56029;52.568;13.588;2023-02-26T07:19:53;2.88;;;1.02;;
68976;SDS011;56029;52.568;13.588;2023-02-26T07:22:19;4.00;;;0.90;;
68976;SDS011;56029;52.568;13.588;2023-02-26T07:24:45;1.43;;;0.87;;
68976;SDS011;56029;52.568;13.588;2023-02-26T07:27:10;1.33;;;0.80;;
68976;SDS011;56029;52.568;13.588;2023-02-26T07:29:36;1.60;;;0.80;;
68976;SDS011;56029;52.568;13.588;2023-02-26T07:32:03;2.30;;;1.02;;
68976;SDS011;56029;52.568;13.588;2023-02-26T07:34:29;5.55;;;1.25;;
68976;SDS011;56029;52.568;13.588;2023-02-26T07:36:55;1.15;;;0.70;;
68976;SDS011;56029;52.568;13.588;2023-02-26T07:39:20;3.47;;;0.80;;
68976;SDS011;56029;52.568;13.588;2023-02-26T07:41:46;1.37;;;0.70;;
68976;SDS011;56029;52.568;13.588;2023-02-26T07:44:11;1.35;;;0.70;;
68976;SDS011;56029;52.568;13.588;2023-02-26T07:46:37;0.90;;;0.73;;
68976;SDS011;56029;52.568;13.588;2023-02-26T07:49:02;1.83;;;0.83;;
68976;SDS011;56029;52.568;13.588;2023-02-26T07:51:28;2.83;;;0.80;;
68976;SDS011;56029;52.568;13.588;2023-02-26T07:53:53;2.00;;;0.90;;
68976;SDS011;56029;52.568;13.588;2023-02-26T07:56:19;5.70;;;1.57;;
68976;SDS011;56029;52.568;13.588;2023-02-26T07:58:44;3.53;;;1.67;;
68976;SDS011;56029;52.568;13.588;2023-02-26T08:01:10;6.13;;;2.53;;
68976;SDS011;56029;52.568;13.588;2023-02-26T08:03:36;3.97;;;1.57;;
68976;SDS011;56029;52.568;13.588;2023-02-26T08:06:01;1.80;;;1.02;;
68976;SDS011;56029;52.568;13.588;2023-02-26T08:08:27;3.78;;;1.52;;
68976;SDS011;56029;52.568;13.588;2023-02-26T08:10:53;3.03;;;0.90;;
68976;SDS011;56029;52.568;13.588;2023-02-26T08:13:19;1.33;;;0.80;;
68976;SDS011;56029;52.568;13.588;2023-02-26T08:15:46;3.67;;;1.13;;
68976;SDS011;56029;52.568;13.588;2023-02-26T08:18:12;4.18;;;0.98;;
68976;SDS011;56029;52.568;13.588;2023-02-26T08:20:38;1.70;;;0.87;;
68976;SDS011;56029;52.568;13.588;2023-02-26T08:23:03;2.33;;;0.75;;
68976;SDS011;56029;52.568;13.588;2023-02-26T08:25:29;2.40;;;1.47;;
68976;SDS011;56029;52.568;13.588;2023-02-26T08:27:54;2.35;;;0.90;;
68976;SDS011;56029;52.568;13.588;2023-02-26T08:30:23;2.42;;;0.82;;
68976;SDS011;56029;52.568;13.588;2023-02-26T08:32:49;1.27;;;0.77;;
68976;SDS011;56029;52.568;13.588;2023-02-26T08:35:15;2.05;;;0.90;;
68976;SDS011;56029;52.568;13.588;2023-02-26T08:37:40;2.00;;;0.80;;
68976;SDS011;56029;52.568;13.588;2023-02-26T08:40:07;1.45;;;0.70;;
68976;SDS011;56029;52.568;13.588;2023-02-26T08:42:33;1.55;;;0.68;;
68976;SDS011;56029;52.568;13.588;2023-02-26T08:45:00;1.50;;;0.70;;
68976;SDS011;56029;52.568;13.588;2023-02-26T08:47:25;1.63;;;0.80;;
68976;SDS011;56029;52.568;13.588;2023-02-26T08:49:51;1.30;;;0.82;;
68976;SDS011;56029;52.568;13.588;2023-02-26T08:52:16;1.40;;;0.80;;
68976;SDS011;56029;52.568;13.588;2023-02-26T08:54:42;3.92;;;0.90;;
68976;SDS011;56029;52.568;13.588;2023-02-26T08:57:07;2.87;;;0.90;;
68976;SDS011;56029;52.568;13.588;2023-02-26T08:59:33;2.93;;;0.70;;
68976;SDS011;56029;52.568;13.588;2023-02-26T09:01:58;1.15;;;0.93;;
68976;SDS011;56029;52.568;13.588;2023-02-26T09:04:24;1.97;;;1.00;;
68976;SDS011;56029;52.568;13.588;2023-02-26T09:06:50;1.88;;;0.90;;
68976;SDS011;56029;52.568;13.588;2023-02-26T09:09:17;1.25;;;0.75;;
68976;SDS011;56029;52.568;13.588;2023-02-26T09:11:43;1.63;;;0.80;;
68976;SDS011;56029;52.568;13.588;2023-02-26T09:14:09;1.27;;;0.80;;
68976;SDS011;56029;52.568;13.588;2023-02-26T09:16:35;2.90;;;0.90;;
68976;SDS011;56029;52.568;13.588;2023-02-26T09:19:01;4.20;;;0.80;;
68976;SDS011;56029;52.568;13.588;2023-02-26T09:21:28;1.73;;;0.90;;
68976;SDS011;56029;52.568;13.588;2023-02-26T09:23:54;1.08;;;0.68;;
68976;SDS011;56029;52.568;13.588;2023-02-26T09:26:20;1.70;;;0.90;;
68976;SDS011;56029;52.568;13.588;2023-02-26T09:28:45;1.67;;;0.80;;
68976;SDS011;56029;52.568;13.588;2023-02-26T09:31:11;1.20;;;0.70;;
68976;SDS011;56029;52.568;13.588;2023-02-26T09:33:37;0.98;;;0.70;;
68976;SDS011;56029;52.568;13.588;2023-02-26T09:36:02;2.53;;;0.90;;
68976;SDS011;56029;52.568;13.588;2023-02-26T09:38:28;1.92;;;0.70;;
68976;SDS011;56029;52.568;13.588;2023-02-26T09:40:55;3.33;;;1.33;;
68976;SDS011;56029;52.568;13.588;2023-02-26T09:43:32;2.85;;;1.50;;
68976;SDS011;56029;52.568;13.588;2023-02-26T09:46:20;1.53;;;0.80;;
68976;SDS011;56029;52.568;13.588;2023-02-26T09:52:07;4.07;;;1.42;;
68976;SDS011;56029;52.568;13.588;2023-02-26T09:54:46;1.08;;;0.90;;
68976;SDS011;56029;52.568;13.588;2023-02-26T09:57:24;1.45;;;0.80;;
68976;SDS011;56029;52.568;13.588;2023-02-26T09:59:58;1.20;;;0.80;;
68976;SDS011;56029;52.568;13.588;2023-02-26T10:02:31;1.35;;;0.80;;
68976;SDS011;56029;52.568;13.588;2023-02-26T10:05:09;1.65;;;0.80;;
68976;SDS011;56029;52.568;13.588;2023-02-26T10:07:56;1.92;;;0.63;;
68976;SDS011;56029;52.568;13.588;2023-02-26T10:13:21;1.20;;;0.70;;
68976;SDS011;56029;52.568;13.588;2023-02-26T10:16:10;0.88;;;0.70;;
68976;SDS011;56029;52.568;13.588;2023-02-26T10:18:46;1.55;;;0.90;;
68976;SDS011;56029;52.568;13.588;2023-02-26T10:21:29;0.90;;;0.60;;
68976;SDS011;56029;52.568;13.588;2023-02-26T10:23:57;2.50;;;0.70;;
68976;SDS011;56029;52.568;13.588;2023-02-26T10:26:27;2.90;;;1.17;;
68976;SDS011;56029;52.568;13.588;2023-02-26T10:29:15;1.88;;;0.63;;
68976;SDS011;56029;52.568;13.588;2023-02-26T10:34:28;22.75;;;5.43;;
68976;SDS011;56029;52.568;13.588;2023-02-26T10:39:52;3.30;;;0.80;;
68976;SDS011;56029;52.568;13.588;2023-02-26T10:42:25;3.33;;;1.33;;
68976;SDS011;56029;52.568;13.588;2023-02-26T10:45:10;5.00;;;1.40;;
68976;SDS011;56029;52.568;13.588;2023-02-26T10:48:02;2.58;;;0.90;;
68976;SDS011;56029;52.568;13.588;2023-02-26T10:50:33;2.38;;;0.95;;
68976;SDS011;56029;52.568;13.588;2023-02-26T10:53:00;3.37;;;1.10;;
68976;SDS011;56029;52.568;13.588;2023-02-26T10:55:32;4.00;;;1.10;;
68976;SDS011;56029;52.568;13.588;2023-02-26T10:58:14;3.17;;;0.90;;
68976;SDS011;56029;52.568;13.588;2023-02-26T11:00:44;3.30;;;0.93;;
68976;SDS011;56029;52.568;13.588;2023-02-26T11:03:15;2.17;;;1.00;;
68976;SDS011;56029;52.568;13.588;2023-02-26T11:05:44;3.37;;;0.90;;
68976;SDS011;56029;52.568;13.588;2023-02-26T11:08:17;3.90;;;0.85;;
68976;SDS011;56029;52.568;13.588;2023-02-26T11:10:55;3.30;;;1.25;;
68976;SDS011;56029;52.568;13.588;2023-02-26T11:13:24;1.85;;;0.82;;
68976;SDS011;56029;52.568;13.588;2023-02-26T11:15:51;3.05;;;1.00;;
68976;SDS011;56029;52.568;13.588;2023-02-26T11:18:40;1.47;;;0.80;;
68976;SDS011;56029;52.568;13.588;2023-02-26T11:21:17;2.50;;;0.65;;
68976;SDS011;56029;52.568;13.588;2023-02-26T11:23:46;3.33;;;1.20;;
68976;SDS011;56029;52.568;13.588;2023-02-26T11:26:17;3.97;;;1.15;;
68976;SDS011;56029;52.568;13.588;2023-02-26T11:28:45;1.88;;;0.80;;
68976;SDS011;56029;52.568;13.588;2023-02-26T11:31:17;2.87;;;1.00;;
68976;SDS011;56029;52.568;13.588;2023-02-26T11:33:47;1.73;;;0.80;;
68976;SDS011;56029;52.568;13.588;2023-02-26T11:36:16;1.77;;;1.00;;
68976;SDS011;56029;52.568;13.588;2023-02-26T11:38:44;1.88;;;0.90;;
68976;SDS011;56029;52.568;13.588;2023-02-26T11:41:16;1.75;;;0.93;;
68976;SDS011;56029;52.568;13.588;2023-02-26T11:43:43;1.83;;;0.90;;
68976;SDS011;56029;52.568;13.588;2023-02-26T11:46:12;1.35;;;0.70;;
68976;SDS011;56029;52.568;13.588;2023-02-26T11:48:45;2.28;;;1.10;;
68976;SDS011;56029;52.568;13.588;2023-02-26T11:51:18;2.53;;;0.90;;
68976;SDS011;56029;52.568;13.588;2023-02-26T11:53:49;2.55;;;1.05;;
68976;SDS011;56029;52.568;13.588;2023-02-26T11:56:25;1.47;;;0.90;;
68976;SDS011;56029;52.568;13.588;2023-02-26T11:58:54;2.28;;;0.90;;
68976;SDS011;56029;52.568;13.588;2023-02-26T12:01:26;2.88;;;1.00;;
68976;SDS011;56029;52.568;13.588;2023-02-26T12:03:56;1.83;;;0.90;;
68976;SDS011;56029;52.568;13.588;2023-02-26T12:06:24;1.85;;;0.90;;
68976;SDS011;56029;52.568;13.588;2023-02-26T12:08:50;1.17;;;0.80;;
68976;SDS011;56029;52.568;13.588;2023-02-26T12:11:26;1.42;;;0.70;;
68976;SDS011;56029;52.568;13.588;2023-02-26T12:14:25;3.28;;;0.93;;
68976;SDS011;56029;52.568;13.588;2023-02-26T12:23:01;1.30;;;0.80;;
68976;SDS011;56029;52.568;13.588;2023-02-26T12:25:52;2.97;;;1.10;;
68976;SDS011;56029;52.568;13.588;2023-02-26T12:28:51;2.78;;;1.20;;
68976;SDS011;56029;52.568;13.588;2023-02-26T12:31:37;2.10;;;1.08;;
68976;SDS011;56029;52.568;13.588;2023-02-26T12:39:47;3.58;;;1.30;;
68976;SDS011;56029;52.568;13.588;2023-02-26T12:42:37;3.03;;;1.40;;
68976;SDS011;56029;52.568;13.588;2023-02-26T12:48:27;1.52;;;0.82;;
68976;SDS011;56029;52.568;13.588;2023-02-26T12:54:13;2.90;;;0.90;;
68976;SDS011;56029;52.568;13.588;2023-02-26T12:59:51;1.38;;;0.98;;
68976;SDS011;56029;52.568;13.588;2023-02-26T13:05:26;1.63;;;0.90;;
68976;SDS011;56029;52.568;13.588;2023-02-26T13:08:11;1.02;;;0.70;;
68976;SDS011;56029;52.568;13.588;2023-02-26T13:10:52;3.00;;;0.88;;
68976;SDS011;56029;52.568;13.588;2023-02-26T13:21:12;2.83;;;1.00;;
68976;SDS011;56029;52.568;13.588;2023-02-26T13:24:23;3.22;;;0.93;;
68976;SDS011;56029;52.568;13.588;2023-02-26T13:26:46;1.27;;;0.80;;
68976;SDS011;56029;52.568;13.588;2023-02-26T13:29:17;1.52;;;0.88;;
68976;SDS011;56029;52.568;13.588;2023-02-26T13:37:14;1.67;;;0.70;;
68976;SDS011;56029;52.568;13.588;2023-02-26T13:39:49;6.35;;;1.20;;
68976;SDS011;56029;52.568;13.588;2023-02-26T13:42:26;1.00;;;0.80;;
68976;SDS011;56029;52.568;13.588;2023-02-26T13:50:47;1.55;;;1.00;;
68976;SDS011;56029;52.568;13.588;2023-02-26T13:55:52;3.95;;;0.90;;
68976;SDS011;56029;52.568;13.588;2023-02-26T14:00:56;1.88;;;0.73;;
68976;SDS011;56029;52.568;13.588;2023-02-26T14:03:48;3.05;;;1.00;;
68976;SDS011;56029;52.568;13.588;2023-02-26T14:09:14;8.95;;;4.57;;
68976;SDS011;56029;52.568;13.588;2023-02-26T14:12:03;2.87;;;1.40;;
68976;SDS011;56029;52.568;13.588;2023-02-26T14:20:14;3.35;;;0.98;;
68976;SDS011;56029;52.568;13.588;2023-02-26T14:25:37;1.73;;;0.70;;
68976;SDS011;56029;52.568;13.588;2023-02-26T14:31:11;2.40;;;1.15;;
68976;SDS011;56029;52.568;13.588;2023-02-26T14:36:26;2.05;;;1.00;;
68976;SDS011;56029;52.568;13.588;2023-02-26T14:39:00;1.40;;;1.00;;
68976;SDS011;56029;52.568;13.588;2023-02-26T14:41:30;0.90;;;0.70;;
68976;SDS011;56029;52.568;13.588;2023-02-26T14:44:10;1.85;;;1.00;;
68976;SDS011;56029;52.568;13.588;2023-02-26T14:46:42;4.53;;;1.40;;
68976;SDS011;56029;52.568;13.588;2023-02-26T14:49:16;3.70;;;1.15;;
68976;SDS011;56029;52.568;13.588;2023-02-26T14:51:51;1.17;;;0.80;;
68976;SDS011;56029;52.568;13.588;2023-02-26T14:54:37;2.00;;;1.10;;
68976;SDS011;56029;52.568;13.588;2023-02-26T14:57:57;3.58;;;1.35;;
68976;SDS011;56029;52.568;13.588;2023-02-26T15:14:07;1.35;;;0.95;;
68976;SDS011;56029;52.568;13.588;2023-02-26T15:19:40;1.10;;;0.68;;
68976;SDS011;56029;52.568;13.588;2023-02-26T15:22:28;1.45;;;0.65;;
68976;SDS011;56029;52.568;13.588;2023-02-26T15:24:56;1.27;;;0.60;;
68976;SDS011;56029;52.568;13.588;2023-02-26T15:27:22;3.00;;;1.20;;
68976;SDS011;56029;52.568;13.588;2023-02-26T15:29:48;2.65;;;1.10;;
68976;SDS011;56029;52.568;13.588;2023-02-26T15:32:29;3.80;;;1.60;;
68976;SDS011;56029;52.568;13.588;2023-02-26T15:35:00;3.07;;;1.57;;
68976;SDS011;56029;52.568;13.588;2023-02-26T15:37:29;2.33;;;1.17;;
68976;SDS011;56029;52.568;13.588;2023-02-26T15:39:58;2.42;;;0.95;;
68976;SDS011;56029;52.568;13.588;2023-02-26T15:42:27;1.85;;;0.73;;
68976;SDS011;56029;52.568;13.588;2023-02-26T15:44:58;1.30;;;0.88;;
68976;SDS011;56029;52.568;13.588;2023-02-26T15:47:28;2.03;;;1.00;;
68976;SDS011;56029;52.568;13.588;2023-02-26T15:49:54;3.42;;;1.20;;
68976;SDS011;56029;52.568;13.588;2023-02-26T15:52:21;1.80;;;1.13;;
68976;SDS011;56029;52.568;13.588;2023-02-26T15:54:51;6.13;;;1.50;;
68976;SDS011;56029;52.568;13.588;2023-02-26T15:57:19;2.28;;;1.38;;
68976;SDS011;56029;52.568;13.588;2023-02-26T15:59:49;2.77;;;1.50;;
68976;SDS011;56029;52.568;13.588;2023-02-26T16:02:19;2.03;;;1.10;;
68976;SDS011;56029;52.568;13.588;2023-02-26T16:04:52;3.28;;;1.80;;
68976;SDS011;56029;52.568;13.588;2023-02-26T16:07:17;4.37;;;2.10;;
68976;SDS011;56029;52.568;13.588;2023-02-26T16:09:45;3.78;;;2.20;;
68976;SDS011;56029;52.568;13.588;2023-02-26T16:12:16;2.97;;;1.73;;
68976;SDS011;56029;52.568;13.588;2023-02-26T16:14:48;3.67;;;2.40;;
68976;SDS011;56029;52.568;13.588;2023-02-26T16:17:22;3.92;;;2.20;;
68976;SDS011;56029;52.568;13.588;2023-02-26T16:19:51;5.20;;;2.63;;
68976;SDS011;56029;52.568;13.588;2023-02-26T16:22:29;5.43;;;2.95;;
68976;SDS011;56029;52.568;13.588;2023-02-26T16:25:05;6.13;;;3.17;;
68976;SDS011;56029;52.568;13.588;2023-02-26T16:27:39;4.60;;;2.13;;
68976;SDS011;56029;52.568;13.588;2023-02-26T16:30:07;3.47;;;1.55;;
68976;SDS011;56029;52.568;13.588;2023-02-26T16:32:41;6.37;;;2.13;;
68976;SDS011;56029;52.568;13.588;2023-02-26T16:35:08;3.33;;;1.70;;
68976;SDS011;56029;52.568;13.588;2023-02-26T16:37:42;3.55;;;1.63;;
68976;SDS011;56029;52.568;13.588;2023-02-26T16:42:43;28.40;;;9.40;;
68976;SDS011;56029;52.568;13.588;2023-02-26T16:47:49;16.98;;;6.28;;
68976;SDS011;56029;52.568;13.588;2023-02-26T16:50:18;15.32;;;6.65;;
68976;SDS011;56029;52.568;13.588;2023-02-26T16:52:58;6.95;;;2.20;;
68976;SDS011;56029;52.568;13.588;2023-02-26T16:55:27;7.05;;;3.25;;
68976;SDS011;56029;52.568;13.588;2023-02-26T16:57:55;9.77;;;3.87;;
68976;SDS011;56029;52.568;13.588;2023-02-26T17:00:24;10.48;;;4.05;;
68976;SDS011;56029;52.568;13.588;2023-02-26T17:02:56;9.35;;;3.83;;
68976;SDS011;56029;52.568;13.588;2023-02-26T17:05:38;16.85;;;6.95;;
68976;SDS011;56029;52.568;13.588;2023-02-26T17:08:08;21.73;;;9.77;;
68976;SDS011;56029;52.568;13.588;2023-02-26T17:10:41;11.47;;;5.40;;